首页
METAR-TAF:

METAR-TAF

机场 :

基輔國際機場

基輔, 乌克兰

纬度: 50-24N, 经度: 030-34E, 海拔: 166米

当前天气观测

该预报发布于31分钟前的21:30 UTC
风速6节,风向西转西北
温度 1°C
湿度 86%
气压 1001 hPa
能见度10公里或以上
1500米以下无云,无积雨云

METAR: UKKK 272130Z 29003MPS CAVOK 01/M01 Q1001 R26/290058 NOSIG

时间: 00:01 (22:01 UTC)

预报

该预报发布于4小时和58分钟前的17:03 UTC
预报有效从27日的 18点(UTC)到 28日的 18点(UTC)
风速6节,风向西转西北,有时为16节阵风
能見度: 6000
多云层高于700英尺
短暂存在
从 27日的 18点(UTC)到 28日的 07点(UTC)
风速2节,风向多变
能見度: 2000
多云层高于500英尺
轻雾
几率 40% :
短暂存在
从 27日的 20点(UTC)到 28日的 07点(UTC)
能見度: 0400
层高于200英尺
冻雾
成为
从 28日的 07点(UTC)到 28日的 09点(UTC)
风速6节,风向西,有时为16节阵风
能见度10公里或以上
多云层高于1000英尺

TAF: UKKK 271703Z 2718/2818 29003G08MPS 6000 BKN007 TX05/2812Z TNM01/2804Z TEMPO 2718/2807 VRB01MPS 2000 BR BKN005 PROB40 TEMPO 2720/2807 0400 FZFG VV002 BECMG 2807/2809 26003G08MPS 9999 BKN010

超过4000个机场的气象观测和天气预报(METAR&TAF报告)。

可查询的气象台以黄色和红色小点在地图上表示。

将鼠标移到小点上方,可查看气象台名称。

然后点击查看天气观测和预报。

如需切换地图:点击带黑十字的绿色按钮放大地图;点击带横线的绿色按钮缩小地图;或者点击绿色箭头查看邻近地区的地图。


METAR-TAF: